sensor_id;sensor_type;location;lat;lon;timestamp;P1;durP1;ratioP1;P2;durP2;ratioP2
34146;SDS011;20423;49.448;9.056;2022-10-16T08:24:30;3.50;;;3.00;;
34146;SDS011;20423;49.448;9.056;2022-10-16T08:26:57;4.70;;;2.72;;
34146;SDS011;20423;49.448;9.056;2022-10-16T08:29:23;6.40;;;2.55;;
34146;SDS011;20423;49.448;9.056;2022-10-16T08:31:48;6.72;;;2.70;;
34146;SDS011;20423;49.448;9.056;2022-10-16T08:34:14;5.47;;;2.40;;
34146;SDS011;20423;49.448;9.056;2022-10-16T08:36:40;7.25;;;2.65;;
34146;SDS011;20423;49.448;9.056;2022-10-16T08:42:18;9.35;;;3.30;;
34146;SDS011;20423;49.448;9.056;2022-10-16T08:53:33;7.05;;;2.75;;
34146;SDS011;20423;49.448;9.056;2022-10-16T08:56:06;5.45;;;2.78;;
34146;SDS011;20423;49.448;9.056;2022-10-16T08:58:32;8.05;;;3.22;;
34146;SDS011;20423;49.448;9.056;2022-10-16T09:00:59;6.53;;;3.00;;
34146;SDS011;20423;49.448;9.056;2022-10-16T09:06:50;8.85;;;2.60;;
34146;SDS011;20423;49.448;9.056;2022-10-16T09:12:12;5.82;;;2.72;;
34146;SDS011;20423;49.448;9.056;2022-10-16T09:14:44;9.10;;;2.90;;
34146;SDS011;20423;49.448;9.056;2022-10-16T09:17:45;3.95;;;2.50;;
34146;SDS011;20423;49.448;9.056;2022-10-16T09:23:13;8.85;;;2.65;;
34146;SDS011;20423;49.448;9.056;2022-10-16T09:25:44;7.15;;;2.70;;
34146;SDS011;20423;49.448;9.056;2022-10-16T09:28:13;3.00;;;1.70;;
34146;SDS011;20423;49.448;9.056;2022-10-16T09:30:38;2.78;;;1.80;;
34146;SDS011;20423;49.448;9.056;2022-10-16T09:33:04;4.82;;;2.00;;
34146;SDS011;20423;49.448;9.056;2022-10-16T09:35:32;2.78;;;1.45;;
34146;SDS011;20423;49.448;9.056;2022-10-16T09:38:21;3.38;;;1.45;;
34146;SDS011;20423;49.448;9.056;2022-10-16T09:40:54;2.92;;;2.40;;
34146;SDS011;20423;49.448;9.056;2022-10-16T09:43:39;5.97;;;2.00;;
34146;SDS011;20423;49.448;9.056;2022-10-16T09:46:08;6.35;;;1.98;;
34146;SDS011;20423;49.448;9.056;2022-10-16T09:48:48;4.35;;;1.58;;
34146;SDS011;20423;49.448;9.056;2022-10-16T09:54:34;3.83;;;1.58;;
34146;SDS011;20423;49.448;9.056;2022-10-16T09:57:12;9.25;;;1.80;;
34146;SDS011;20423;49.448;9.056;2022-10-16T09:59:45;4.50;;;1.70;;
34146;SDS011;20423;49.448;9.056;2022-10-16T10:02:16;2.53;;;1.40;;
34146;SDS011;20423;49.448;9.056;2022-10-16T10:04:51;3.78;;;1.38;;
34146;SDS011;20423;49.448;9.056;2022-10-16T10:07:32;2.97;;;1.20;;
34146;SDS011;20423;49.448;9.056;2022-10-16T10:10:04;2.17;;;1.88;;
34146;SDS011;20423;49.448;9.056;2022-10-16T10:12:31;5.80;;;1.80;;
34146;SDS011;20423;49.448;9.056;2022-10-16T10:15:06;5.78;;;1.50;;
34146;SDS011;20423;49.448;9.056;2022-10-16T10:17:52;7.50;;;1.33;;
34146;SDS011;20423;49.448;9.056;2022-10-16T10:22:50;5.00;;;2.10;;
34146;SDS011;20423;49.448;9.056;2022-10-16T10:31:03;4.95;;;2.50;;
34146;SDS011;20423;49.448;9.056;2022-10-16T10:33:53;2.65;;;1.85;;
34146;SDS011;20423;49.448;9.056;2022-10-16T10:36:37;10.77;;;2.10;;
34146;SDS011;20423;49.448;9.056;2022-10-16T10:39:16;9.05;;;1.80;;
34146;SDS011;20423;49.448;9.056;2022-10-16T10:44:43;7.28;;;2.42;;
34146;SDS011;20423;49.448;9.056;2022-10-16T10:47:39;5.30;;;2.17;;
34146;SDS011;20423;49.448;9.056;2022-10-16T10:55:38;7.25;;;1.40;;
34146;SDS011;20423;49.448;9.056;2022-10-16T11:01:13;5.22;;;1.65;;
34146;SDS011;20423;49.448;9.056;2022-10-16T11:14:38;8.80;;;1.95;;
34146;SDS011;20423;49.448;9.056;2022-10-16T11:17:09;9.40;;;1.65;;
34146;SDS011;20423;49.448;9.056;2022-10-16T11:19:52;7.35;;;1.88;;
34146;SDS011;20423;49.448;9.056;2022-10-16T11:22:37;7.20;;;1.90;;
34146;SDS011;20423;49.448;9.056;2022-10-16T11:25:24;5.72;;;2.03;;
34146;SDS011;20423;49.448;9.056;2022-10-16T11:30:29;5.68;;;1.90;;
34146;SDS011;20423;49.448;9.056;2022-10-16T11:33:18;3.58;;;1.63;;
34146;SDS011;20423;49.448;9.056;2022-10-16T11:41:36;3.58;;;1.67;;
34146;SDS011;20423;49.448;9.056;2022-10-16T11:44:14;5.63;;;2.00;;
34146;SDS011;20423;49.448;9.056;2022-10-16T11:46:43;4.82;;;1.90;;
34146;SDS011;20423;49.448;9.056;2022-10-16T11:49:18;6.63;;;2.28;;
34146;SDS011;20423;49.448;9.056;2022-10-16T11:51:48;5.93;;;1.60;;
34146;SDS011;20423;49.448;9.056;2022-10-16T11:54:32;8.52;;;1.83;;
34146;SDS011;20423;49.448;9.056;2022-10-16T11:57:24;7.28;;;1.70;;
34146;SDS011;20423;49.448;9.056;2022-10-16T12:00:08;11.57;;;1.80;;
34146;SDS011;20423;49.448;9.056;2022-10-16T12:08:08;7.72;;;2.10;;
34146;SDS011;20423;49.448;9.056;2022-10-16T12:10:43;6.80;;;1.92;;
34146;SDS011;20423;49.448;9.056;2022-10-16T12:16:04;4.72;;;1.67;;
34146;SDS011;20423;49.448;9.056;2022-10-16T12:18:36;4.65;;;1.67;;
34146;SDS011;20423;49.448;9.056;2022-10-16T12:21:03;5.50;;;1.88;;
34146;SDS011;20423;49.448;9.056;2022-10-16T12:23:54;3.30;;;1.73;;
34146;SDS011;20423;49.448;9.056;2022-10-16T12:26:26;5.75;;;1.98;;
34146;SDS011;20423;49.448;9.056;2022-10-16T12:28:55;3.83;;;1.52;;
34146;SDS011;20423;49.448;9.056;2022-10-16T12:31:22;5.97;;;1.90;;
34146;SDS011;20423;49.448;9.056;2022-10-16T12:33:55;7.03;;;2.13;;
34146;SDS011;20423;49.448;9.056;2022-10-16T12:36:30;4.85;;;2.05;;
34146;SDS011;20423;49.448;9.056;2022-10-16T12:38:58;8.00;;;2.10;;
34146;SDS011;20423;49.448;9.056;2022-10-16T12:41:29;3.67;;;1.60;;
34146;SDS011;20423;49.448;9.056;2022-10-16T12:44:04;4.15;;;2.05;;
34146;SDS011;20423;49.448;9.056;2022-10-16T12:46:46;4.95;;;2.15;;
34146;SDS011;20423;49.448;9.056;2022-10-16T12:51:37;8.05;;;2.08;;
34146;SDS011;20423;49.448;9.056;2022-10-16T13:05:09;6.65;;;2.20;;
34146;SDS011;20423;49.448;9.056;2022-10-16T13:11:02;3.58;;;2.10;;
34146;SDS011;20423;49.448;9.056;2022-10-16T13:28:07;6.30;;;1.75;;
34146;SDS011;20423;49.448;9.056;2022-10-16T13:30:44;4.03;;;1.83;;
34146;SDS011;20423;49.448;9.056;2022-10-16T13:33:18;6.90;;;2.28;;
34146;SDS011;20423;49.448;9.056;2022-10-16T13:35:56;4.15;;;2.05;;
34146;SDS011;20423;49.448;9.056;2022-10-16T13:38:26;4.85;;;1.92;;
34146;SDS011;20423;49.448;9.056;2022-10-16T13:43:26;12.32;;;2.53;;
34146;SDS011;20423;49.448;9.056;2022-10-16T13:46:00;4.93;;;1.98;;
34146;SDS011;20423;49.448;9.056;2022-10-16T13:48:28;5.28;;;1.92;;
34146;SDS011;20423;49.448;9.056;2022-10-16T13:51:29;4.75;;;2.15;;
34146;SDS011;20423;49.448;9.056;2022-10-16T13:53:47;8.02;;;2.70;;
34146;SDS011;20423;49.448;9.056;2022-10-16T13:56:14;6.28;;;2.30;;
34146;SDS011;20423;49.448;9.056;2022-10-16T14:01:18;6.20;;;2.08;;
34146;SDS011;20423;49.448;9.056;2022-10-16T14:03:47;5.78;;;2.08;;
34146;SDS011;20423;49.448;9.056;2022-10-16T14:06:16;2.30;;;2.10;;
34146;SDS011;20423;49.448;9.056;2022-10-16T14:08:48;8.30;;;2.10;;
34146;SDS011;20423;49.448;9.056;2022-10-16T14:11:22;2.15;;;1.75;;
34146;SDS011;20423;49.448;9.056;2022-10-16T14:13:48;8.40;;;2.17;;
34146;SDS011;20423;49.448;9.056;2022-10-16T14:16:16;8.43;;;2.25;;
34146;SDS011;20423;49.448;9.056;2022-10-16T14:18:58;4.05;;;2.00;;
34146;SDS011;20423;49.448;9.056;2022-10-16T14:21:26;4.78;;;2.15;;
34146;SDS011;20423;49.448;9.056;2022-10-16T14:23:53;5.57;;;2.55;;
34146;SDS011;20423;49.448;9.056;2022-10-16T14:26:20;8.07;;;2.47;;
34146;SDS011;20423;49.448;9.056;2022-10-16T14:28:48;9.48;;;2.28;;
34146;SDS011;20423;49.448;9.056;2022-10-16T14:33:53;24.02;;;2.42;;
34146;SDS011;20423;49.448;9.056;2022-10-16T14:36:18;5.47;;;3.60;;
34146;SDS011;20423;49.448;9.056;2022-10-16T14:38:55;6.40;;;4.20;;
34146;SDS011;20423;49.448;9.056;2022-10-16T14:41:24;7.80;;;2.88;;
34146;SDS011;20423;49.448;9.056;2022-10-16T14:46:53;6.82;;;2.78;;
34146;SDS011;20423;49.448;9.056;2022-10-16T14:49:20;5.13;;;2.60;;
34146;SDS011;20423;49.448;9.056;2022-10-16T14:51:48;5.20;;;2.53;;
34146;SDS011;20423;49.448;9.056;2022-10-16T14:54:15;14.15;;;2.65;;
34146;SDS011;20423;49.448;9.056;2022-10-16T14:56:49;3.83;;;2.30;;
34146;SDS011;20423;49.448;9.056;2022-10-16T15:02:22;2.45;;;2.20;;
34146;SDS011;20423;49.448;9.056;2022-10-16T15:04:50;20.50;;;3.45;;
34146;SDS011;20423;49.448;9.056;2022-10-16T15:07:16;4.20;;;2.70;;
34146;SDS011;20423;49.448;9.056;2022-10-16T15:09:42;3.55;;;2.60;;
34146;SDS011;20423;49.448;9.056;2022-10-16T15:12:07;5.70;;;2.70;;
34146;SDS011;20423;49.448;9.056;2022-10-16T15:14:33;5.75;;;2.13;;
34146;SDS011;20423;49.448;9.056;2022-10-16T15:16:59;6.13;;;2.45;;
34146;SDS011;20423;49.448;9.056;2022-10-16T15:19:25;5.72;;;2.47;;
34146;SDS011;20423;49.448;9.056;2022-10-16T15:21:50;8.93;;;2.63;;
34146;SDS011;20423;49.448;9.056;2022-10-16T15:24:17;3.88;;;2.33;;
34146;SDS011;20423;49.448;9.056;2022-10-16T15:26:43;8.20;;;2.70;;
34146;SDS011;20423;49.448;9.056;2022-10-16T15:29:11;8.23;;;2.38;;
34146;SDS011;20423;49.448;9.056;2022-10-16T15:31:37;7.95;;;2.33;;
34146;SDS011;20423;49.448;9.056;2022-10-16T15:34:03;5.90;;;2.40;;
34146;SDS011;20423;49.448;9.056;2022-10-16T15:36:34;7.05;;;2.30;;
34146;SDS011;20423;49.448;9.056;2022-10-16T15:39:06;5.78;;;2.40;;
34146;SDS011;20423;49.448;9.056;2022-10-16T15:41:41;7.53;;;2.33;;
34146;SDS011;20423;49.448;9.056;2022-10-16T15:44:07;7.45;;;2.88;;
34146;SDS011;20423;49.448;9.056;2022-10-16T15:46:33;7.03;;;3.38;;
34146;SDS011;20423;49.448;9.056;2022-10-16T15:48:59;7.35;;;3.08;;
34146;SDS011;20423;49.448;9.056;2022-10-16T15:51:26;8.27;;;3.30;;
34146;SDS011;20423;49.448;9.056;2022-10-16T15:53:58;8.65;;;3.75;;
34146;SDS011;20423;49.448;9.056;2022-10-16T15:56:26;9.48;;;4.13;;
34146;SDS011;20423;49.448;9.056;2022-10-16T15:58:53;12.30;;;3.30;;
34146;SDS011;20423;49.448;9.056;2022-10-16T16:01:19;8.07;;;3.10;;
34146;SDS011;20423;49.448;9.056;2022-10-16T16:03:46;8.32;;;3.97;;
34146;SDS011;20423;49.448;9.056;2022-10-16T16:06:12;8.80;;;2.88;;
34146;SDS011;20423;49.448;9.056;2022-10-16T16:08:39;3.63;;;2.95;;
34146;SDS011;20423;49.448;9.056;2022-10-16T16:11:12;6.70;;;2.40;;
34146;SDS011;20423;49.448;9.056;2022-10-16T16:13:39;5.97;;;2.90;;
34146;SDS011;20423;49.448;9.056;2022-10-16T16:16:06;9.45;;;2.92;;
34146;SDS011;20423;49.448;9.056;2022-10-16T16:18:37;6.35;;;2.97;;
34146;SDS011;20423;49.448;9.056;2022-10-16T16:21:04;7.57;;;2.95;;
34146;SDS011;20423;49.448;9.056;2022-10-16T16:23:30;8.20;;;2.80;;
34146;SDS011;20423;49.448;9.056;2022-10-16T16:26:03;6.07;;;2.72;;
34146;SDS011;20423;49.448;9.056;2022-10-16T16:28:51;7.35;;;3.50;;
34146;SDS011;20423;49.448;9.056;2022-10-16T16:31:18;19.45;;;3.28;;
34146;SDS011;20423;49.448;9.056;2022-10-16T16:33:45;4.18;;;2.80;;
34146;SDS011;20423;49.448;9.056;2022-10-16T16:36:11;9.23;;;3.58;;
34146;SDS011;20423;49.448;9.056;2022-10-16T16:38:36;10.15;;;3.65;;
34146;SDS011;20423;49.448;9.056;2022-10-16T16:43:40;8.25;;;3.55;;
34146;SDS011;20423;49.448;9.056;2022-10-16T16:46:06;10.48;;;3.60;;
34146;SDS011;20423;49.448;9.056;2022-10-16T16:48:32;8.95;;;3.25;;
34146;SDS011;20423;49.448;9.056;2022-10-16T16:53:32;7.70;;;4.95;;
34146;SDS011;20423;49.448;9.056;2022-10-16T16:56:03;7.22;;;5.00;;
34146;SDS011;20423;49.448;9.056;2022-10-16T16:58:30;9.30;;;6.03;;
34146;SDS011;20423;49.448;9.056;2022-10-16T17:00:56;16.38;;;6.63;;
34146;SDS011;20423;49.448;9.056;2022-10-16T17:03:36;14.40;;;7.90;;
34146;SDS011;20423;49.448;9.056;2022-10-16T17:06:03;8.25;;;6.97;;
34146;SDS011;20423;49.448;9.056;2022-10-16T17:08:31;23.17;;;9.05;;
34146;SDS011;20423;49.448;9.056;2022-10-16T17:10:57;13.90;;;8.18;;
34146;SDS011;20423;49.448;9.056;2022-10-16T17:13:24;23.17;;;9.60;;
34146;SDS011;20423;49.448;9.056;2022-10-16T17:15:51;53.17;;;24.92;;
34146;SDS011;20423;49.448;9.056;2022-10-16T17:18:18;53.10;;;27.05;;
34146;SDS011;20423;49.448;9.056;2022-10-16T17:20:46;23.40;;;10.57;;
34146;SDS011;20423;49.448;9.056;2022-10-16T17:23:12;13.23;;;9.20;;
34146;SDS011;20423;49.448;9.056;2022-10-16T17:25:39;19.63;;;9.93;;
34146;SDS011;20423;49.448;9.056;2022-10-16T17:28:05;34.05;;;18.88;;
34146;SDS011;20423;49.448;9.056;2022-10-16T17:30:33;42.00;;;20.98;;
34146;SDS011;20423;49.448;9.056;2022-10-16T17:33:00;36.80;;;21.55;;
34146;SDS011;20423;49.448;9.056;2022-10-16T17:35:26;21.73;;;12.10;;
34146;SDS011;20423;49.448;9.056;2022-10-16T17:37:52;11.25;;;5.85;;
34146;SDS011;20423;49.448;9.056;2022-10-16T17:40:18;6.47;;;4.15;;
34146;SDS011;20423;49.448;9.056;2022-10-16T17:42:44;6.18;;;4.43;;
34146;SDS011;20423;49.448;9.056;2022-10-16T17:48:21;11.15;;;4.63;;
34146;SDS011;20423;49.448;9.056;2022-10-16T17:50:48;9.27;;;3.83;;
34146;SDS011;20423;49.448;9.056;2022-10-16T17:53:13;9.55;;;4.05;;
34146;SDS011;20423;49.448;9.056;2022-10-16T17:55:40;11.00;;;4.68;;
34146;SDS011;20423;49.448;9.056;2022-10-16T17:58:07;14.15;;;4.72;;
34146;SDS011;20423;49.448;9.056;2022-10-16T18:00:33;4.80;;;4.30;;
34146;SDS011;20423;49.448;9.056;2022-10-16T18:02:59;7.68;;;4.20;;
34146;SDS011;20423;49.448;9.056;2022-10-16T18:05:25;9.57;;;4.50;;
34146;SDS011;20423;49.448;9.056;2022-10-16T18:07:51;9.63;;;4.47;;
34146;SDS011;20423;49.448;9.056;2022-10-16T18:10:17;12.23;;;4.57;;
34146;SDS011;20423;49.448;9.056;2022-10-16T18:12:43;5.68;;;4.18;;
34146;SDS011;20423;49.448;9.056;2022-10-16T18:15:08;12.30;;;4.38;;
34146;SDS011;20423;49.448;9.056;2022-10-16T18:17:35;10.20;;;4.20;;
34146;SDS011;20423;49.448;9.056;2022-10-16T18:20:05;9.82;;;4.43;;
34146;SDS011;20423;49.448;9.056;2022-10-16T18:22:35;6.90;;;4.18;;
34146;SDS011;20423;49.448;9.056;2022-10-16T18:25:01;11.77;;;4.30;;
34146;SDS011;20423;49.448;9.056;2022-10-16T18:27:29;12.50;;;5.40;;
34146;SDS011;20423;49.448;9.056;2022-10-16T18:29:55;16.48;;;5.43;;
34146;SDS011;20423;49.448;9.056;2022-10-16T18:32:27;9.07;;;5.93;;
34146;SDS011;20423;49.448;9.056;2022-10-16T18:34:53;7.32;;;4.90;;
34146;SDS011;20423;49.448;9.056;2022-10-16T18:37:19;7.60;;;4.90;;
34146;SDS011;20423;49.448;9.056;2022-10-16T18:39:45;9.02;;;4.88;;
34146;SDS011;20423;49.448;9.056;2022-10-16T18:42:12;11.70;;;4.50;;
34146;SDS011;20423;49.448;9.056;2022-10-16T18:44:38;11.43;;;5.35;;
34146;SDS011;20423;49.448;9.056;2022-10-16T18:47:04;16.13;;;6.03;;
34146;SDS011;20423;49.448;9.056;2022-10-16T18:49:30;14.25;;;7.00;;
34146;SDS011;20423;49.448;9.056;2022-10-16T18:51:56;9.70;;;7.22;;
34146;SDS011;20423;49.448;9.056;2022-10-16T18:54:22;11.43;;;6.28;;
34146;SDS011;20423;49.448;9.056;2022-10-16T18:56:50;7.93;;;5.35;;
34146;SDS011;20423;49.448;9.056;2022-10-16T18:59:16;6.93;;;4.90;;
34146;SDS011;20423;49.448;9.056;2022-10-16T19:01:42;11.85;;;4.95;;
34146;SDS011;20423;49.448;9.056;2022-10-16T19:04:09;9.05;;;4.60;;
34146;SDS011;20423;49.448;9.056;2022-10-16T19:06:37;11.85;;;4.55;;
34146;SDS011;20423;49.448;9.056;2022-10-16T19:09:06;7.63;;;3.60;;
34146;SDS011;20423;49.448;9.056;2022-10-16T19:11:32;10.07;;;4.03;;
34146;SDS011;20423;49.448;9.056;2022-10-16T19:17:46;10.90;;;4.07;;
34146;SDS011;20423;49.448;9.056;2022-10-16T19:20:11;15.38;;;6.85;;
34146;SDS011;20423;49.448;9.056;2022-10-16T19:22:37;8.80;;;5.15;;
34146;SDS011;20423;49.448;9.056;2022-10-16T19:25:17;7.47;;;3.90;;
34146;SDS011;20423;49.448;9.056;2022-10-16T19:27:46;10.82;;;3.45;;
34146;SDS011;20423;49.448;9.056;2022-10-16T19:30:15;7.15;;;3.63;;
34146;SDS011;20423;49.448;9.056;2022-10-16T19:32:43;6.13;;;3.13;;
34146;SDS011;20423;49.448;9.056;2022-10-16T19:35:10;11.02;;;3.38;;
34146;SDS011;20423;49.448;9.056;2022-10-16T19:37:36;14.00;;;3.33;;
34146;SDS011;20423;49.448;9.056;2022-10-16T19:40:03;4.68;;;3.17;;
34146;SDS011;20423;49.448;9.056;2022-10-16T19:42:29;10.98;;;3.58;;
34146;SDS011;20423;49.448;9.056;2022-10-16T19:44:55;5.40;;;3.35;;
34146;SDS011;20423;49.448;9.056;2022-10-16T19:47:21;6.60;;;3.33;;
34146;SDS011;20423;49.448;9.056;2022-10-16T19:53:34;6.40;;;3.10;;
34146;SDS011;20423;49.448;9.056;2022-10-16T19:56:00;8.90;;;2.90;;
34146;SDS011;20423;49.448;9.056;2022-10-16T19:58:26;3.42;;;2.88;;
34146;SDS011;20423;49.448;9.056;2022-10-16T20:00:52;6.47;;;3.35;;
34146;SDS011;20423;49.448;9.056;2022-10-16T20:06:44;6.35;;;3.47;;
34146;SDS011;20423;49.448;9.056;2022-10-16T20:09:10;7.55;;;3.28;;
34146;SDS011;20423;49.448;9.056;2022-10-16T20:11:36;5.97;;;3.30;;
34146;SDS011;20423;49.448;9.056;2022-10-16T20:14:02;11.25;;;3.80;;
34146;SDS011;20423;49.448;9.056;2022-10-16T20:16:29;3.67;;;2.90;;
34146;SDS011;20423;49.448;9.056;2022-10-16T20:18:55;4.43;;;3.55;;
34146;SDS011;20423;49.448;9.056;2022-10-16T20:21:22;9.88;;;3.53;;
34146;SDS011;20423;49.448;9.056;2022-10-16T20:23:50;8.25;;;3.30;;
34146;SDS011;20423;49.448;9.056;2022-10-16T20:26:16;8.60;;;3.65;;
34146;SDS011;20423;49.448;9.056;2022-10-16T20:28:44;9.15;;;3.95;;
34146;SDS011;20423;49.448;9.056;2022-10-16T20:31:12;12.18;;;3.55;;
34146;SDS011;20423;49.448;9.056;2022-10-16T20:33:42;5.28;;;3.33;;
34146;SDS011;20423;49.448;9.056;2022-10-16T20:36:09;10.85;;;3.17;;
34146;SDS011;20423;49.448;9.056;2022-10-16T20:38:39;8.73;;;3.42;;
34146;SDS011;20423;49.448;9.056;2022-10-16T20:41:06;8.85;;;3.53;;
34146;SDS011;20423;49.448;9.056;2022-10-16T20:43:33;8.43;;;2.72;;
34146;SDS011;20423;49.448;9.056;2022-10-16T20:46:00;6.95;;;3.00;;
34146;SDS011;20423;49.448;9.056;2022-10-16T20:48:28;13.15;;;3.25;;
34146;SDS011;20423;49.448;9.056;2022-10-16T20:50:53;7.35;;;3.30;;
34146;SDS011;20423;49.448;9.056;2022-10-16T20:53:19;6.82;;;3.30;;
34146;SDS011;20423;49.448;9.056;2022-10-16T20:55:45;5.43;;;3.15;;
34146;SDS011;20423;49.448;9.056;2022-10-16T20:58:11;7.15;;;3.00;;
34146;SDS011;20423;49.448;9.056;2022-10-16T21:00:37;3.97;;;2.70;;
34146;SDS011;20423;49.448;9.056;2022-10-16T21:03:03;9.38;;;2.92;;
34146;SDS011;20423;49.448;9.056;2022-10-16T21:05:29;8.32;;;2.78;;
34146;SDS011;20423;49.448;9.056;2022-10-16T21:07:58;8.93;;;3.25;;
34146;SDS011;20423;49.448;9.056;2022-10-16T21:10:24;3.45;;;2.60;;
34146;SDS011;20423;49.448;9.056;2022-10-16T21:12:53;6.38;;;2.85;;
34146;SDS011;20423;49.448;9.056;2022-10-16T21:15:19;7.13;;;2.75;;
34146;SDS011;20423;49.448;9.056;2022-10-16T21:17:45;9.35;;;2.80;;
34146;SDS011;20423;49.448;9.056;2022-10-16T21:20:11;6.18;;;2.67;;
34146;SDS011;20423;49.448;9.056;2022-10-16T21:22:37;5.72;;;2.83;;
34146;SDS011;20423;49.448;9.056;2022-10-16T21:25:03;6.07;;;2.88;;
34146;SDS011;20423;49.448;9.056;2022-10-16T21:27:29;4.90;;;3.05;;
34146;SDS011;20423;49.448;9.056;2022-10-16T21:29:59;8.88;;;3.20;;
34146;SDS011;20423;49.448;9.056;2022-10-16T21:32:25;3.83;;;2.72;;
34146;SDS011;20423;49.448;9.056;2022-10-16T21:34:50;9.65;;;3.10;;
34146;SDS011;20423;49.448;9.056;2022-10-16T21:37:16;4.60;;;3.17;;
34146;SDS011;20423;49.448;9.056;2022-10-16T21:39:42;9.32;;;3.55;;
34146;SDS011;20423;49.448;9.056;2022-10-16T21:42:07;4.20;;;2.70;;
34146;SDS011;20423;49.448;9.056;2022-10-16T21:44:33;15.45;;;4.22;;
34146;SDS011;20423;49.448;9.056;2022-10-16T21:46:59;3.97;;;3.20;;
34146;SDS011;20423;49.448;9.056;2022-10-16T21:49:24;4.28;;;2.72;;
34146;SDS011;20423;49.448;9.056;2022-10-16T21:51:50;10.18;;;3.67;;
34146;SDS011;20423;49.448;9.056;2022-10-16T21:54:20;9.20;;;3.45;;
34146;SDS011;20423;49.448;9.056;2022-10-16T21:56:47;10.25;;;3.20;;
34146;SDS011;20423;49.448;9.056;2022-10-16T21:59:13;9.60;;;3.10;;
34146;SDS011;20423;49.448;9.056;2022-10-16T22:01:38;4.22;;;3.05;;
34146;SDS011;20423;49.448;9.056;2022-10-16T22:04:05;9.02;;;3.30;;
34146;SDS011;20423;49.448;9.056;2022-10-16T22:06:31;8.00;;;3.08;;
34146;SDS011;20423;49.448;9.056;2022-10-16T22:08:57;10.10;;;3.53;;
34146;SDS011;20423;49.448;9.056;2022-10-16T22:11:26;6.68;;;3.45;;
34146;SDS011;20423;49.448;9.056;2022-10-16T22:14:01;4.03;;;2.90;;
34146;SDS011;20423;49.448;9.056;2022-10-16T22:16:28;4.95;;;3.35;;
34146;SDS011;20423;49.448;9.056;2022-10-16T22:18:54;7.15;;;3.70;;
34146;SDS011;20423;49.448;9.056;2022-10-16T22:21:21;10.57;;;3.15;;
34146;SDS011;20423;49.448;9.056;2022-10-16T22:23:48;5.25;;;3.47;;
34146;SDS011;20423;49.448;9.056;2022-10-16T22:26:13;5.05;;;3.38;;
34146;SDS011;20423;49.448;9.056;2022-10-16T22:28:39;5.80;;;3.58;;
34146;SDS011;20423;49.448;9.056;2022-10-16T22:31:07;5.07;;;3.40;;
34146;SDS011;20423;49.448;9.056;2022-10-16T22:33:34;10.10;;;3.88;;
34146;SDS011;20423;49.448;9.056;2022-10-16T22:36:01;8.27;;;3.55;;
34146;SDS011;20423;49.448;9.056;2022-10-16T22:38:29;5.78;;;3.15;;
34146;SDS011;20423;49.448;9.056;2022-10-16T22:41:03;9.32;;;3.40;;
34146;SDS011;20423;49.448;9.056;2022-10-16T22:43:39;7.05;;;3.40;;
34146;SDS011;20423;49.448;9.056;2022-10-16T22:46:14;10.73;;;4.35;;
34146;SDS011;20423;49.448;9.056;2022-10-16T22:48:42;4.32;;;3.17;;
34146;SDS011;20423;49.448;9.056;2022-10-16T22:51:08;8.38;;;3.80;;
34146;SDS011;20423;49.448;9.056;2022-10-16T22:53:35;22.73;;;4.55;;
34146;SDS011;20423;49.448;9.056;2022-10-16T22:56:02;3.47;;;3.08;;
34146;SDS011;20423;49.448;9.056;2022-10-16T22:58:28;5.55;;;3.45;;
34146;SDS011;20423;49.448;9.056;2022-10-16T23:00:54;7.60;;;3.20;;
34146;SDS011;20423;49.448;9.056;2022-10-16T23:03:20;10.80;;;3.67;;
34146;SDS011;20423;49.448;9.056;2022-10-16T23:05:46;16.50;;;3.70;;
34146;SDS011;20423;49.448;9.056;2022-10-16T23:08:11;10.27;;;3.47;;
34146;SDS011;20423;49.448;9.056;2022-10-16T23:10:38;15.00;;;3.65;;
34146;SDS011;20423;49.448;9.056;2022-10-16T23:13:04;11.32;;;3.20;;
34146;SDS011;20423;49.448;9.056;2022-10-16T23:15:30;5.82;;;3.45;;
34146;SDS011;20423;49.448;9.056;2022-10-16T23:17:56;7.20;;;3.50;;
34146;SDS011;20423;49.448;9.056;2022-10-16T23:20:22;9.15;;;3.08;;
34146;SDS011;20423;49.448;9.056;2022-10-16T23:22:48;8.20;;;3.65;;
34146;SDS011;20423;49.448;9.056;2022-10-16T23:25:13;7.43;;;3.22;;
34146;SDS011;20423;49.448;9.056;2022-10-16T23:31:27;27.33;;;6.03;;
34146;SDS011;20423;49.448;9.056;2022-10-16T23:33:56;12.73;;;3.70;;
34146;SDS011;20423;49.448;9.056;2022-10-16T23:36:23;11.35;;;3.60;;
34146;SDS011;20423;49.448;9.056;2022-10-16T23:38:58;6.93;;;4.03;;
34146;SDS011;20423;49.448;9.056;2022-10-16T23:41:24;4.60;;;3.25;;
34146;SDS011;20423;49.448;9.056;2022-10-16T23:43:49;5.18;;;3.30;;
34146;SDS011;20423;49.448;9.056;2022-10-16T23:46:15;11.23;;;4.03;;
34146;SDS011;20423;49.448;9.056;2022-10-16T23:48:42;5.25;;;3.55;;
34146;SDS011;20423;49.448;9.056;2022-10-16T23:51:08;4.82;;;3.38;;
34146;SDS011;20423;49.448;9.056;2022-10-16T23:53:35;10.38;;;3.70;;
34146;SDS011;20423;49.448;9.056;2022-10-16T23:56:00;8.27;;;3.55;;
34146;SDS011;20423;49.448;9.056;2022-10-16T23:58:26;10.13;;;3.90;;
